Chanticleer, Arkansas
Current Conditions -  °F | °C
As of 5:53 PM on Wednesday 22 Oct 2014 (Local Time) from KGLH Reporting Station
Clear Clear  
Wind Chill: 69°   Ceiling: Unl
Heat Index: 69°   Visibility: 10mi
Dew Point: 42°   Wind: 9mph
Humidity: 38%   Direction: 50°NE
Pressure: 30.12"   Gusts: NA
Location:  33.3324°N, 91.3183°W
Report Text: KGLH 222253Z AUTO 05008KT 10SM CLR 21/06 A3012 RMK AO2 SLP208 T02060056
Loading
Personal Weather Stations






























Interactive Weather Map
Tropical Storm Tracking
New forecast layout! Learn more

10-Day Weather Forecast

Advertisements
Track Severe Weather on mobile